createdAt,value
2022-10-23T00:01:53.514Z,97404.77
2022-10-23T00:04:26.137Z,97405.15
2022-10-23T00:06:55.178Z,97402.58
2022-10-23T00:09:25.476Z,97403.34
2022-10-23T00:11:54.593Z,97408.03
2022-10-23T00:14:25.866Z,97411.55
2022-10-23T00:16:55.357Z,97415.41
2022-10-23T00:19:25.976Z,97419.20
2022-10-23T00:21:54.861Z,97422.52
2022-10-23T00:24:23.635Z,97434.84
2022-10-23T00:26:52.635Z,97442.50
2022-10-23T00:29:22.091Z,97443.20
2022-10-23T00:31:51.707Z,97450.23
2022-10-23T00:34:21.068Z,97456.45
2022-10-23T00:36:51.582Z,97456.73
2022-10-23T00:39:22.227Z,97457.03
2022-10-23T00:41:53.068Z,97450.60
2022-10-23T00:44:23.480Z,97450.91
2022-10-23T00:46:52.726Z,97454.45
2022-10-23T00:49:23.609Z,97453.10
2022-10-23T00:52:05.625Z,97459.52
2022-10-23T00:54:38.815Z,97467.23
2022-10-23T00:57:11.997Z,97462.23
2022-10-23T00:59:41.920Z,97462.25
2022-10-23T01:02:11.837Z,97460.52
2022-10-23T01:04:42.237Z,97455.43
2022-10-23T01:07:32.786Z,97454.56
2022-10-23T01:10:29.948Z,97453.63
2022-10-23T01:12:59.190Z,97451.04
2022-10-23T01:15:33.127Z,97449.80
2022-10-23T01:18:07.573Z,97448.92
2022-10-23T01:20:42.194Z,97454.59
2022-10-23T01:23:24.231Z,97455.84
2022-10-23T01:25:53.355Z,97456.30
2022-10-23T01:28:26.993Z,97453.27
2022-10-23T01:30:58.113Z,97450.83
2022-10-23T01:33:44.194Z,97458.33
2022-10-23T01:36:16.046Z,97467.23
2022-10-23T01:38:57.051Z,97470.79
2022-10-23T01:41:37.090Z,97474.63
2022-10-23T01:44:09.900Z,97477.41
2022-10-23T01:46:40.533Z,97479.56
2022-10-23T01:49:13.028Z,97481.50
2022-10-23T01:51:46.813Z,97487.18
2022-10-23T01:54:17.228Z,97487.64
2022-10-23T01:56:47.338Z,97486.50
2022-10-23T01:59:24.001Z,97490.84
2022-10-23T02:01:55.360Z,97494.77
2022-10-23T02:04:32.015Z,97497.00
2022-10-23T02:07:01.315Z,97499.52
2022-10-23T02:09:30.897Z,97502.39
2022-10-23T02:12:04.048Z,97507.87
2022-10-23T02:14:53.010Z,97513.45
2022-10-23T02:17:32.614Z,97516.13
2022-10-23T02:20:18.086Z,97514.77
2022-10-23T02:22:56.809Z,97519.50
2022-10-23T02:25:31.425Z,97519.08
2022-10-23T02:28:04.921Z,97521.86
2022-10-23T02:30:43.995Z,97528.77
2022-10-23T02:33:15.017Z,97531.63
2022-10-23T02:35:46.439Z,97536.22
2022-10-23T02:38:29.596Z,97542.48
2022-10-23T02:41:04.512Z,97542.15
2022-10-23T02:43:45.041Z,97550.20
2022-10-23T02:46:22.908Z,97558.02
2022-10-23T02:49:11.721Z,97568.64
2022-10-23T02:51:48.725Z,97575.25
2022-10-23T02:54:44.037Z,97577.74
2022-10-23T02:57:29.100Z,97579.13
2022-10-23T02:59:59.111Z,97583.52
2022-10-23T03:02:35.057Z,97589.86
2022-10-23T03:05:06.227Z,97588.34
2022-10-23T03:07:36.305Z,97586.48
2022-10-23T03:10:10.310Z,97589.36
2022-10-23T03:12:40.136Z,97597.13
2022-10-23T03:15:12.312Z,97604.17
2022-10-23T03:17:42.436Z,97608.08
2022-10-23T03:20:11.954Z,97613.56
2022-10-23T03:22:40.916Z,97613.34
2022-10-23T03:25:10.732Z,97607.64
2022-10-23T03:27:40.051Z,97613.26
2022-10-23T03:30:11.369Z,97616.15
2022-10-23T03:32:41.387Z,97619.73
2022-10-23T03:35:11.434Z,97622.86
2022-10-23T03:37:41.658Z,97623.80
2022-10-23T03:40:13.274Z,97625.84
2022-10-23T03:42:42.893Z,97624.36
2022-10-23T03:45:14.546Z,97629.54
2022-10-23T03:47:44.676Z,97632.38
2022-10-23T03:50:15.010Z,97633.88
2022-10-23T03:52:44.493Z,97634.97
2022-10-23T03:55:14.443Z,97644.59
2022-10-23T03:57:43.412Z,97649.42
2022-10-23T04:00:14.306Z,97654.20
2022-10-23T04:02:46.762Z,97659.13
2022-10-23T04:05:16.627Z,97665.95
2022-10-23T04:07:51.148Z,97669.79
2022-10-23T04:10:19.835Z,97674.23
2022-10-23T04:12:48.619Z,97678.23
2022-10-23T04:15:18.048Z,97682.39
2022-10-23T04:17:48.463Z,97681.64
2022-10-23T04:20:17.143Z,97678.60
2022-10-23T04:22:45.950Z,97682.85
2022-10-23T04:25:14.827Z,97683.42
2022-10-23T04:27:43.840Z,97686.42
2022-10-23T04:30:13.110Z,97688.48
2022-10-23T04:32:41.894Z,97689.90
2022-10-23T04:35:10.484Z,97685.66
2022-10-23T04:37:39.486Z,97687.36
2022-10-23T04:40:08.687Z,97692.70
2022-10-23T04:42:39.242Z,97698.58
2022-10-23T04:45:08.416Z,97699.19
2022-10-23T04:47:37.721Z,97698.27
2022-10-23T04:50:07.905Z,97699.33
2022-10-23T04:52:55.857Z,97700.52
2022-10-23T04:55:49.622Z,97702.52
2022-10-23T04:58:26.089Z,97704.79
2022-10-23T05:00:54.840Z,97701.20
2022-10-23T05:03:26.478Z,97708.08
2022-10-23T05:05:56.342Z,97718.93
2022-10-23T05:08:57.257Z,97724.19
2022-10-23T05:11:51.985Z,97728.26
2022-10-23T05:14:22.963Z,97726.28
2022-10-23T05:16:58.360Z,97728.92
2022-10-23T05:19:40.660Z,97732.66
2022-10-23T05:22:09.563Z,97735.75
2022-10-23T05:24:50.638Z,97740.31
2022-10-23T05:27:23.740Z,97743.30
2022-10-23T05:29:53.950Z,97745.51
2022-10-23T05:32:28.071Z,97749.83
2022-10-23T05:34:57.052Z,97752.89
2022-10-23T05:37:29.118Z,97757.41
2022-10-23T05:40:10.803Z,97764.14
2022-10-23T05:42:41.819Z,97766.98
2022-10-23T05:45:12.685Z,97772.77
2022-10-23T05:48:11.048Z,97772.04
2022-10-23T05:51:09.649Z,97774.94
2022-10-23T05:53:45.609Z,97782.20
2022-10-23T05:56:43.779Z,97782.44
2022-10-23T05:59:23.090Z,97792.60
2022-10-23T06:01:56.130Z,97800.13
2022-10-23T06:04:43.218Z,97804.94
2022-10-23T06:07:40.891Z,97808.73
2022-10-23T06:10:11.001Z,97812.27
2022-10-23T06:12:42.551Z,97811.50
2022-10-23T06:15:13.387Z,97810.98
2022-10-23T06:18:03.176Z,97813.61
2022-10-23T06:20:35.543Z,97816.02
2022-10-23T06:23:09.145Z,97819.08
2022-10-23T06:25:58.118Z,97822.50
2022-10-23T06:28:39.197Z,97823.35
2022-10-23T06:31:12.267Z,97827.34
2022-10-23T06:33:40.953Z,97833.93
2022-10-23T06:36:10.910Z,97832.39
2022-10-23T06:38:41.011Z,97836.81
2022-10-23T06:41:17.159Z,97837.35
2022-10-23T06:43:50.548Z,97838.52
2022-10-23T06:46:40.425Z,97837.48
2022-10-23T06:49:40.960Z,97833.55
2022-10-23T06:52:14.476Z,97831.70
2022-10-23T06:54:46.831Z,97839.45
2022-10-23T06:57:25.856Z,97837.52
2022-10-23T06:59:54.541Z,97840.45
2022-10-23T07:02:23.132Z,97843.05
2022-10-23T07:04:51.499Z,97842.39
2022-10-23T07:07:20.803Z,97844.03
2022-10-23T07:09:50.311Z,97851.55
2022-10-23T07:12:25.135Z,97851.96
2022-10-23T07:15:04.478Z,97855.58
2022-10-23T07:17:32.850Z,97854.41
2022-10-23T07:20:01.131Z,97854.58
2022-10-23T07:22:30.121Z,97855.01
2022-10-23T07:25:10.889Z,97857.34
2022-10-23T07:27:40.367Z,97860.64
2022-10-23T07:30:10.717Z,97864.30
2022-10-23T07:32:45.236Z,97867.94
2022-10-23T07:35:50.381Z,97868.44
2022-10-23T07:38:26.332Z,97868.46
2022-10-23T07:40:57.994Z,97868.31
2022-10-23T07:43:26.810Z,97872.44
2022-10-23T07:45:55.872Z,97874.39
2022-10-23T07:48:32.854Z,97875.98
2022-10-23T07:51:02.261Z,97877.90
2022-10-23T07:53:31.883Z,97883.34
2022-10-23T07:56:17.239Z,97884.54
2022-10-23T07:59:11.015Z,97880.94
2022-10-23T08:01:39.767Z,97881.95
2022-10-23T08:04:09.712Z,97884.05
2022-10-23T08:06:43.416Z,97891.20
2022-10-23T08:09:12.103Z,97886.27
2022-10-23T08:11:41.401Z,97889.80
2022-10-23T08:14:11.007Z,97892.09
2022-10-23T08:16:40.514Z,97896.05
2022-10-23T08:19:34.903Z,97900.28
2022-10-23T08:22:04.201Z,97909.11
2022-10-23T08:24:32.783Z,97911.80
2022-10-23T08:27:01.265Z,97915.84
2022-10-23T08:29:30.265Z,97920.36
2022-10-23T08:31:58.636Z,97921.59
2022-10-23T08:34:31.826Z,97923.51
2022-10-23T08:37:00.822Z,97922.98
2022-10-23T08:39:29.402Z,97919.04
2022-10-23T08:42:18.883Z,97924.45
2022-10-23T08:44:52.788Z,97924.71
2022-10-23T08:47:27.819Z,97927.98
2022-10-23T08:50:14.974Z,97930.82
2022-10-23T08:52:52.633Z,97935.16
2022-10-23T08:55:27.668Z,97942.01
2022-10-23T08:58:01.885Z,97941.46
2022-10-23T09:00:30.674Z,97942.00
2022-10-23T09:03:01.098Z,97946.55
2022-10-23T09:05:32.240Z,97951.20
2022-10-23T09:08:19.253Z,97950.98
2022-10-23T09:10:50.624Z,97951.81
2022-10-23T09:13:19.910Z,97949.15
2022-10-23T09:15:53.812Z,97950.64
2022-10-23T09:18:24.550Z,97947.33
2022-10-23T09:20:54.360Z,97948.42
2022-10-23T09:23:23.555Z,97948.64
2022-10-23T09:25:57.220Z,97948.19
2022-10-23T09:28:31.471Z,97949.96
2022-10-23T09:31:07.734Z,97947.58
2022-10-23T09:33:37.507Z,97951.92
2022-10-23T09:36:06.030Z,97958.86
2022-10-23T09:38:34.306Z,97960.02
2022-10-23T09:41:05.545Z,97960.38
2022-10-23T09:43:34.235Z,97960.86
2022-10-23T09:46:06.601Z,97960.48
2022-10-23T09:48:36.113Z,97961.54
2022-10-23T09:51:14.214Z,97961.81
2022-10-23T09:53:57.236Z,97960.29
2022-10-23T09:56:31.452Z,97960.41
2022-10-23T09:59:11.916Z,97961.04
2022-10-23T10:01:47.821Z,97958.99
2022-10-23T10:04:36.527Z,97956.32
2022-10-23T10:07:07.063Z,97953.98
2022-10-23T10:09:35.239Z,97954.44
2022-10-23T10:12:09.855Z,97952.16
2022-10-23T10:14:56.972Z,97949.86
2022-10-23T10:17:44.489Z,97951.73
2022-10-23T10:20:22.192Z,97954.81
2022-10-23T10:22:53.956Z,97962.45
2022-10-23T10:25:38.096Z,97965.87
2022-10-23T10:28:09.445Z,97961.52
2022-10-23T10:30:47.655Z,97967.18
2022-10-23T10:33:26.373Z,97968.70
2022-10-23T10:36:13.559Z,97961.74
2022-10-23T10:38:41.975Z,97964.63
2022-10-23T10:41:21.620Z,97966.43
2022-10-23T10:43:59.110Z,97963.63
2022-10-23T10:46:45.311Z,97962.16
2022-10-23T10:49:25.973Z,97960.84
2022-10-23T10:52:33.466Z,97959.01
2022-10-23T10:55:05.837Z,97952.60
2022-10-23T10:57:37.288Z,97949.00
2022-10-23T11:00:16.233Z,97951.08
2022-10-23T11:02:47.661Z,97957.03
2022-10-23T11:05:25.460Z,97955.92
2022-10-23T11:07:53.738Z,97961.87
2022-10-23T11:10:22.426Z,97962.60
2022-10-23T11:12:51.522Z,97964.79
2022-10-23T11:15:22.865Z,97964.73
2022-10-23T11:18:01.696Z,97965.08
2022-10-23T11:20:45.293Z,97962.48
2022-10-23T11:23:28.350Z,97967.66
2022-10-23T11:26:28.776Z,97967.73
2022-10-23T11:29:13.744Z,97963.01
2022-10-23T11:32:00.761Z,97964.43
2022-10-23T11:34:32.313Z,97969.59
2022-10-23T11:37:05.304Z,97966.54
2022-10-23T11:39:35.212Z,97968.71
2022-10-23T11:42:08.309Z,97978.09
2022-10-23T11:44:47.130Z,97980.52
2022-10-23T11:47:26.562Z,97978.13
2022-10-23T11:50:15.215Z,97974.31
2022-10-23T11:53:13.107Z,97974.27
2022-10-23T11:55:56.517Z,97968.93
2022-10-23T11:58:32.336Z,97969.67
2022-10-23T12:01:03.989Z,97974.67
2022-10-23T12:04:01.488Z,97976.48
2022-10-23T12:06:39.384Z,97975.29
2022-10-23T12:09:27.939Z,97977.88
2022-10-23T12:12:08.607Z,97980.39
2022-10-23T12:14:36.878Z,97978.95
2022-10-23T12:17:22.872Z,97977.53
2022-10-23T12:19:51.658Z,97974.34
2022-10-23T12:22:22.529Z,97971.20
2022-10-23T12:24:59.784Z,97975.41
2022-10-23T12:27:54.309Z,97981.11
2022-10-23T12:30:23.886Z,97981.33
2022-10-23T12:33:11.106Z,97982.29
2022-10-23T12:35:52.379Z,97982.49
2022-10-23T12:38:24.444Z,97987.25
2022-10-23T12:41:01.123Z,97991.93
2022-10-23T12:43:33.798Z,97998.28
2022-10-23T12:46:05.766Z,98000.72
2022-10-23T12:48:34.653Z,97998.16
2022-10-23T12:51:03.136Z,97990.77
2022-10-23T12:53:31.519Z,97991.27
2022-10-23T12:58:35.540Z,97983.12
2022-10-23T13:01:06.940Z,97989.45
2022-10-23T13:03:35.676Z,97989.02
2022-10-23T13:06:06.098Z,97991.02
2022-10-23T13:08:37.349Z,97995.35
2022-10-23T13:11:35.625Z,97989.34
2022-10-23T13:14:28.884Z,97992.55
2022-10-23T13:17:10.881Z,97985.41
2022-10-23T13:19:39.160Z,97991.08
2022-10-23T13:22:21.877Z,97987.58
2022-10-23T13:24:50.257Z,97985.16
2022-10-23T13:27:47.708Z,97990.80
2022-10-23T13:30:28.480Z,97994.92
2022-10-23T13:32:56.858Z,97994.44
2022-10-23T13:35:25.137Z,97993.20
2022-10-23T13:37:53.715Z,98002.81
2022-10-23T13:40:24.041Z,98005.38
2022-10-23T13:42:56.006Z,98011.21
2022-10-23T13:45:25.924Z,98013.86
2022-10-23T13:47:54.392Z,98008.39
2022-10-23T13:50:22.675Z,98008.92
2022-10-23T13:52:50.954Z,98019.83
2022-10-23T13:55:28.960Z,98017.86
2022-10-23T13:57:57.336Z,98017.66
2022-10-23T14:00:25.613Z,98012.48
2022-10-23T14:05:23.499Z,98014.12
2022-10-23T14:07:51.876Z,98010.30
2022-10-23T14:10:21.742Z,98015.97
2022-10-23T14:12:55.199Z,98011.45
2022-10-23T14:15:24.173Z,98010.43
2022-10-23T14:17:58.020Z,98009.10
2022-10-23T14:20:28.309Z,98009.77
2022-10-23T14:22:56.799Z,98004.76
2022-10-23T14:25:25.366Z,98012.75
2022-10-23T14:30:21.813Z,98006.05
2022-10-23T14:32:50.503Z,98006.16
2022-10-23T14:35:18.876Z,98002.21
2022-10-23T14:37:47.257Z,97997.96
2022-10-23T14:40:15.536Z,97997.27
2022-10-23T14:42:44.156Z,97997.70
2022-10-23T14:45:12.802Z,97996.52
2022-10-23T14:47:41.295Z,97994.13
2022-10-23T14:50:11.198Z,97990.48
2022-10-23T14:52:39.407Z,97991.66
2022-10-23T14:55:07.951Z,97998.52
2022-10-23T14:57:36.332Z,98001.89
2022-10-23T15:00:05.630Z,98006.30
2022-10-23T15:02:34.419Z,98004.58
2022-10-23T15:05:02.796Z,98004.31
2022-10-23T15:07:31.281Z,98005.95
2022-10-23T15:09:59.865Z,98010.14
2022-10-23T15:12:28.145Z,98011.73
2022-10-23T15:14:56.416Z,98012.52
2022-10-23T15:17:25.101Z,98013.70
2022-10-23T15:19:53.576Z,98012.83
2022-10-23T15:22:23.357Z,98010.10
2022-10-23T15:24:52.495Z,98002.50
2022-10-23T15:27:20.871Z,98001.30
2022-10-23T15:29:49.244Z,97997.84
2022-10-23T15:32:17.389Z,98001.61
2022-10-23T15:34:49.992Z,98004.88
2022-10-23T15:37:18.271Z,98003.98
2022-10-23T15:39:46.651Z,98005.59
2022-10-23T15:42:14.926Z,98002.98
2022-10-23T15:44:43.355Z,98011.53
2022-10-23T15:47:11.689Z,98010.36
2022-10-23T15:49:40.362Z,98008.07
2022-10-23T15:54:38.460Z,98006.39
2022-10-23T15:57:06.733Z,98008.05
2022-10-23T15:59:35.010Z,98011.89
2022-10-23T16:02:03.564Z,98015.10
2022-10-23T16:04:31.974Z,98012.98
2022-10-23T16:07:00.550Z,98012.96
2022-10-23T16:09:29.647Z,98016.71
2022-10-23T16:11:58.025Z,98020.14
2022-10-23T16:14:26.196Z,98016.15
2022-10-23T16:16:54.592Z,98017.55
2022-10-23T16:19:22.850Z,98022.88
2022-10-23T16:21:51.227Z,98026.90
2022-10-23T16:24:19.838Z,98026.21
2022-10-23T16:26:53.456Z,98030.15
2022-10-23T16:29:25.996Z,98031.82
2022-10-23T16:31:54.572Z,98031.98
2022-10-23T16:34:23.066Z,98038.06
2022-10-23T16:36:51.330Z,98039.78
2022-10-23T16:39:54.729Z,98042.78
2022-10-23T16:42:42.089Z,98038.81
2022-10-23T16:45:19.137Z,98041.69
2022-10-23T16:47:47.306Z,98049.64
2022-10-23T16:50:15.890Z,98048.65
2022-10-23T16:52:44.477Z,98056.05
2022-10-23T16:55:13.055Z,98055.33
2022-10-23T16:57:41.228Z,98057.98
2022-10-23T17:00:09.707Z,98067.52
2022-10-23T17:02:38.494Z,98071.05
2022-10-23T17:05:07.076Z,98072.77
2022-10-23T17:07:35.254Z,98076.30
2022-10-23T17:10:04.039Z,98076.58
2022-10-23T17:12:32.418Z,98075.11
2022-10-23T17:15:00.794Z,98071.91
2022-10-23T17:17:29.073Z,98072.27
2022-10-23T17:19:57.351Z,98069.14
2022-10-23T17:22:25.830Z,98068.47
2022-10-23T17:24:54.327Z,98069.34
2022-10-23T17:27:22.791Z,98068.77
2022-10-23T17:29:50.969Z,98069.96
2022-10-23T17:32:19.139Z,98076.73
2022-10-23T17:34:47.312Z,98083.25
2022-10-23T17:37:15.689Z,98084.95
2022-10-23T17:39:43.964Z,98089.27
2022-10-23T17:42:12.347Z,98084.32
2022-10-23T17:44:40.621Z,98085.06
2022-10-23T17:47:08.895Z,98083.14
2022-10-23T17:49:37.601Z,98081.33
2022-10-23T17:52:07.087Z,98078.18
2022-10-23T17:54:35.264Z,98077.41
2022-10-23T17:57:03.434Z,98078.27
2022-10-23T17:59:31.606Z,98079.52
2022-10-23T18:02:00.931Z,98073.38
2022-10-23T18:04:30.003Z,98071.52
2022-10-23T18:06:58.179Z,98072.00
2022-10-23T18:09:26.554Z,98074.64
2022-10-23T18:11:54.828Z,98075.55
2022-10-23T18:14:25.179Z,98075.96
2022-10-23T18:16:55.682Z,98077.14
2022-10-23T18:19:23.863Z,98075.23
2022-10-23T18:21:52.542Z,98070.65
2022-10-23T18:24:20.920Z,98065.98
2022-10-23T18:26:49.403Z,98067.05
2022-10-23T18:29:17.781Z,98070.52
2022-10-23T18:31:48.387Z,98067.04
2022-10-23T18:34:21.710Z,98063.95
2022-10-23T18:36:51.004Z,98059.86
2022-10-23T18:39:22.791Z,98054.48
2022-10-23T18:41:52.368Z,98057.07
2022-10-23T18:44:21.380Z,98057.24
2022-10-23T18:46:50.146Z,98057.55
2022-10-23T18:49:19.244Z,98057.31
2022-10-23T18:51:50.096Z,98054.81
2022-10-23T18:54:19.788Z,98053.33
2022-10-23T18:56:48.782Z,98048.77
2022-10-23T18:59:18.489Z,98045.65
2022-10-23T19:01:46.777Z,98045.39
2022-10-23T19:04:18.224Z,98047.73
2022-10-23T19:06:47.620Z,98045.77
2022-10-23T19:09:16.613Z,98051.32
2022-10-23T19:11:45.809Z,98050.59
2022-10-23T19:14:14.088Z,98045.60
2022-10-23T19:16:59.869Z,98041.64
2022-10-23T19:19:34.088Z,98032.75
2022-10-23T19:22:04.117Z,98025.55
2022-10-23T19:24:34.633Z,98032.09
2022-10-23T19:27:03.315Z,98034.61
2022-10-23T19:29:31.803Z,98035.19
2022-10-23T19:32:00.379Z,98030.41
2022-10-23T19:34:28.758Z,98028.34
2022-10-23T19:36:57.034Z,98030.93
2022-10-23T19:39:26.693Z,98028.21
2022-10-23T19:41:55.125Z,98029.42
2022-10-23T19:44:23.478Z,98032.14
2022-10-23T19:46:51.879Z,98034.52
2022-10-23T19:49:20.160Z,98034.94
2022-10-23T19:51:51.279Z,98037.85
2022-10-23T19:54:20.804Z,98039.39
2022-10-23T19:56:49.392Z,98039.06
2022-10-23T19:59:18.379Z,98036.26
2022-10-23T20:01:48.894Z,98034.98
2022-10-23T20:04:18.547Z,98040.19
2022-10-23T20:06:47.097Z,98035.67
2022-10-23T20:09:15.892Z,98039.69
2022-10-23T20:11:45.585Z,98039.50
2022-10-23T20:14:14.392Z,98042.39
2022-10-23T20:16:45.252Z,98045.13
2022-10-23T20:19:14.879Z,98048.71
2022-10-23T20:21:45.048Z,98048.42
2022-10-23T20:24:14.963Z,98043.08
2022-10-23T20:26:44.476Z,98043.11
2022-10-23T20:29:12.951Z,98042.77
2022-10-23T20:31:41.948Z,98036.86
2022-10-23T20:34:11.154Z,98032.95
2022-10-23T20:36:46.725Z,98037.59
2022-10-23T20:39:20.018Z,98034.55
2022-10-23T20:41:48.374Z,98034.98
2022-10-23T20:44:18.411Z,98031.79
2022-10-23T20:46:47.376Z,98025.39
2022-10-23T20:49:16.191Z,98023.39
2022-10-23T20:51:44.737Z,98021.73
2022-10-23T20:54:13.014Z,98023.08
2022-10-23T20:56:41.417Z,98020.60
2022-10-23T20:59:13.864Z,98019.81
2022-10-23T21:01:43.396Z,98017.45
2022-10-23T21:04:13.286Z,98015.98
2022-10-23T21:07:04.419Z,98016.71
2022-10-23T21:09:31.959Z,98018.56
2022-10-23T21:12:00.338Z,98020.84
2022-10-23T21:14:29.228Z,98018.97
2022-10-23T21:16:57.608Z,98026.92
2022-10-23T21:19:25.887Z,98029.61
2022-10-23T21:21:54.569Z,98029.80
2022-10-23T21:24:24.380Z,98031.19
2022-10-23T21:26:52.864Z,98036.17
2022-10-23T21:29:21.244Z,98036.08
2022-10-23T21:31:56.991Z,98031.79
2022-10-23T21:34:26.407Z,98029.89
2022-10-23T21:39:44.564Z,98040.40
2022-10-23T21:42:14.375Z,98042.52
2022-10-23T21:44:42.946Z,98041.00
2022-10-23T21:47:11.753Z,98047.33
2022-10-23T21:49:40.621Z,98046.52
2022-10-23T21:52:09.222Z,98045.34
2022-10-23T21:54:37.557Z,98048.46
2022-10-23T21:57:12.834Z,98050.94
2022-10-23T21:59:41.416Z,98055.71
2022-10-23T22:02:11.210Z,98062.24
2022-10-23T22:04:40.319Z,98068.52
2022-10-23T22:07:11.238Z,98063.05
2022-10-23T22:09:40.249Z,98057.79
2022-10-23T22:12:10.421Z,98050.35
2022-10-23T22:14:39.663Z,98047.54
2022-10-23T22:17:08.358Z,98044.70
2022-10-23T22:19:37.061Z,98042.25
2022-10-23T22:22:06.241Z,98045.02
2022-10-23T22:24:35.918Z,98041.73
2022-10-23T22:27:04.633Z,98036.95
2022-10-23T22:29:33.828Z,98036.13
2022-10-23T22:32:03.381Z,98037.86
2022-10-23T22:34:52.653Z,98035.13
2022-10-23T22:37:22.540Z,98030.29
2022-10-23T22:39:52.745Z,98034.73
2022-10-23T22:42:21.944Z,98032.22
2022-10-23T22:44:50.829Z,98028.17
2022-10-23T22:47:19.735Z,98031.24
2022-10-23T22:49:48.306Z,98035.64
2022-10-23T22:52:17.400Z,98034.55
2022-10-23T22:54:47.926Z,98032.57
2022-10-23T22:57:17.179Z,98026.77
2022-10-23T22:59:45.578Z,98019.88
2022-10-23T23:02:15.005Z,98016.19
2022-10-23T23:04:44.111Z,98015.33
2022-10-23T23:07:12.995Z,98018.65
2022-10-23T23:09:42.714Z,98024.81
2022-10-23T23:12:14.066Z,98022.55
2022-10-23T23:14:44.775Z,98016.13
2022-10-23T23:17:14.517Z,98016.77
2022-10-23T23:19:43.872Z,98020.39
2022-10-23T23:22:12.886Z,98019.20
2022-10-23T23:24:41.678Z,98021.08
2022-10-23T23:27:10.689Z,98015.83
2022-10-23T23:29:39.896Z,98012.31
2022-10-23T23:32:09.172Z,98007.27
2022-10-23T23:34:37.641Z,98002.95
2022-10-23T23:37:06.950Z,97999.73
2022-10-23T23:39:36.359Z,98000.86
2022-10-23T23:42:06.079Z,98011.86
2022-10-23T23:44:41.905Z,98024.35
2022-10-23T23:47:19.556Z,98028.24
2022-10-23T23:49:48.816Z,98028.45
2022-10-23T23:52:18.522Z,98033.55
2022-10-23T23:54:47.421Z,98037.79
2022-10-23T23:57:17.243Z,98036.50
2022-10-23T23:59:46.935Z,98036.70
